Beeson, West Virginia
Current Conditions -  °F | °C
As of 10:52 PM on Wednesday 22 Oct 2014 (Local Time) from KBLF Reporting Station
Light Rain Light Rain  
Wind Chill: 39°   Ceiling: 500
Heat Index: 44°   Visibility: 6mi
Dew Point: 40°   Wind: 10mph
Humidity: 85%   Direction: 310°NW
Pressure: 30.17"   Gusts: NA
Location:  37.48°N, 81.23°W
Report Text: KBLF 230252Z AUTO 31009KT 6SM -RA BR BKN005 OVC010 07/04 A3017 RMK AO2 RAB13E30B52 CIG 003V007 SLP218 P0001 60001 T00670044 53002
Loading
Personal Weather Stations






























Interactive Weather Map
Tropical Storm Tracking
New forecast layout! Learn more

10-Day Weather Forecast

Advertisements
Track Severe Weather on mobile